Quantcast

yfkd's R^3 replays

1 - 50 | 51 - 100 | 101 - 101
Song Results (Perf-Good-Avg-Miss-Boo) Max Combo Score Date
Serious Shit 2,301 - 11 - 0 - 2 - 0 1,544 2,811,955 1/12/16
thinking of you 2,703 - 3 - 0 - 0 - 0 2,706 4,193,475 1/1/16
Serious Shit 1,989 - 226 - 1 - 98 - 2 846 1,971,735 3/5/15
The Limit Does Not Exist 1,608 - 1 - 0 - 0 - 0 1,609 2,493,675 3/4/15
Winter Wind Etude 141 - 0 - 0 - 0 - 0 141 218,550 2/5/15
Gotta Catch 'Em All 2,468 - 0 - 0 - 1 - 1 2,450 3,807,070 1/30/15
Ambient Angels 1,276 - 0 - 0 - 0 - 0 1,276 1,977,800 1/29/15
FUSE!! 2,107 - 4 - 0 - 0 - 0 2,111 3,270,950 1/28/15
Distorted God 1,409 - 1 - 0 - 0 - 0 1,410 2,185,225 1/28/15
Eradication 1,334 - 4 - 2 - 2 - 2 975 1,709,250 1/28/15
Reality 836 - 60 - 1 - 24 - 3 273 741,855 1/22/15
Milky Blue 2,965 - 11 - 1 - 1 - 1 1,666 3,299,500 1/22/15
HAELEQUIN 1,454 - 5 - 0 - 0 - 0 1,459 2,260,075 1/21/15
Exciting Hyper Highspeed Star 1,337 - 0 - 0 - 0 - 0 1,337 2,072,350 1/21/15
Dazzling Soul 1,001 - 0 - 0 - 0 - 0 1,001 1,551,550 1/15/15
Defection 991 - 1 - 0 - 0 - 0 992 1,537,325 1/15/15
Return to Fire 2,351 - 73 - 2 - 23 - 3 802 2,108,045 12/5/14
Final Fantasy Last Battle Festival 3,635 - 10 - 0 - 3 - 1 2,306 4,307,050 12/5/14
The Limit Does Not Exist 1,415 - 134 - 3 - 57 - 1 248 1,045,575 11/15/14
Gravity Blast 1,925 - 1 - 0 - 0 - 0 1,926 2,985,025 11/8/14
VS Boss Battle 909 - 0 - 0 - 0 - 0 909 1,408,950 8/8/14
Etude On A Nimbus 1,436 - 17 - 1 - 12 - 2 419 1,209,770 8/8/14
Vertex BETA 1,674 - 53 - 1 - 27 - 1 359 1,285,940 8/8/14
Sleep 2,071 - 0 - 0 - 1 - 0 1,440 2,578,740 8/8/14
Kono spoon, suteki desu ne 1,357 - 0 - 0 - 0 - 0 1,357 2,103,350 8/6/14
Etude for the Sinners 1,737 - 20 - 3 - 5 - 3 848 1,807,405 8/4/14
Famicom Selecta 1,162 - 1 - 0 - 0 - 0 1,163 1,802,375 8/3/14
Paraclete [Heavy] 1,378 - 83 - 4 - 35 - 2 207 977,055 8/2/14
13th, Friday 2,762 - 1 - 0 - 1 - 0 2,454 3,973,065 8/2/14
thinking of you 2,090 - 426 - 9 - 181 - 12 129 1,339,795 6/27/14
Etude To A Dragon 764 - 5 - 0 - 0 - 0 769 1,190,575 5/18/14
Heavenly Spores 1,593 - 36 - 2 - 12 - 3 319 1,201,380 5/18/14
rough 1,237 - 24 - 1 - 4 - 2 429 1,114,725 5/18/14
Caprice 1,235 - 42 - 1 - 22 - 1 335 1,019,015 5/6/14
Shitsubou Choco 1,554 - 2 - 0 - 1 - 0 1,384 2,238,940 5/5/14
Shatterscape (Bexarametric Remix) 1,292 - 2 - 0 - 1 - 0 752 1,462,840 5/5/14
Z 872 - 0 - 0 - 0 - 0 872 1,351,600 5/5/14
Dazzling Destiny 965 - 3 - 0 - 0 - 0 968 1,499,575 5/4/14
Mother Of God 1,387 - 0 - 0 - 0 - 0 1,387 2,149,850 3/30/14
Seven 777 - 0 - 0 - 0 - 0 777 1,204,350 3/29/14
Robotix 822 - 0 - 0 - 0 - 0 822 1,274,100 3/15/14
One Last Battle 575 - 0 - 0 - 0 - 0 575 891,250 3/12/14
MAX Forever 2,709 - 0 - 0 - 0 - 0 2,709 4,198,950 3/10/14
Red Wings Over Baron 4,308 - 4 - 0 - 0 - 0 4,312 6,682,500 2/25/14
Reluctantly Accepting Temporary Overexhaustion 1,318 - 196 - 7 - 79 - 16 178 932,375 2/7/14
Rave 7 1,368 - 98 - 6 - 29 - 3 263 1,033,630 2/7/14
Metro 2,335 - 105 - 1 - 31 - 7 355 1,658,430 2/7/14
Frictional Nevada 1,323 - 2 - 0 - 0 - 0 1,325 2,053,200 2/7/14
Red Wings Over Baron 4,268 - 31 - 1 - 12 - 1 3,292 5,644,240 2/7/14
Gaussian Blur 2 762 - 7 - 0 - 0 - 0 769 1,190,025 2/6/14
1 - 50 | 51 - 100 | 101 - 101